Current Weather

Snohomish County (Paine Fld)

Everett, Washington (KPAE)

Report from: Tuesday, June 18, 2024 3:53 AM PDT
Current time: Tuesday, June 18, 2024 4:07 AM PDT

Nearby weather – Weather history – Daily summaries
Weather forecast

Temperature11.7°C (53.1°F)
Dew point8.3°C (46.9°F)
Winds 4 kts (2.1 m/s, 4.6 mph) Vrb
Winds variableWinds variable
Visibility10 mi. (16.1 km)
Clouds Ceiling: Overcast 1,700 ft. (518 m)
Altimeter30.09 in.Hg (1019 mB)
Relative humidity80 %
Density altitude-424 ft. (-129 m)
Sea-level pressure101.9 kPa (1019 mB, 30.09 in.Hg)
Remarks Fully automated report
Automated weather observing station with precipitation discriminator
Flight conditions Marginal Visual Meteorological Conditions
Raw dataKPAE 181053Z AUTO VRB04KT 10SM OVC017 12/08 A3009 RMK AO2 SLP188 T01170083
An error has occurred. This application may no longer respond until reloaded. Reload 🗙